KDLS/DLS METAR and TAF weather

Enter ICAO airport designator
Station Type Date Time Source
KDLS METAR 2020/02/19 10:53 UTC NOAA

KDLS 191053Z AUTO 11005KT 10SM CLR M03/M06 A3042 RMK AO2 SLP304 T10331061


Station Type Date Time Source
KDLS Decoded METAR 2020/02/19 10:53 UTC NOAA

THE DALLES MUNICIPAL AIRPORT , OR, United States (KDLS) 45-37N 121-10W 71M
Feb 19, 2020 - 05:53 AM EST / 2020.02.19 1053 UTC
Wind: from the ESE (110 degrees) at 6 MPH (5 KT):0
Visibility: 10 mile(s):0
Sky conditions: clear
Temperature: 26.1 F (-3.3 C)
Windchill: 19 F (-7 C):1
Dew Point: 21.0 F (-6.1 C)
Relative Humidity: 80%
Pressure (altimeter): 30.42 in. Hg (1030 hPa)
ob: KDLS 191053Z AUTO 11005KT 10SM CLR M03/M06 A3042 RMK AO2 SLP304 T10331061
cycle: 11

Station Type Date Time Source
KDLS TAF 2020/02/19 06:22 UTC NOAA

TAF KDLS 190520Z 1906/2006 VRB06KT P6SM SKC

Example: see airport list